Polk Army Air Field Fort Polk US
ICAO: KPOE
IATA: POE
Category: Medium
Scheduled Services: No

Elevation: 330 ft
TransAlt. 18000 ft.

Airport Communications:
APP/DEP:123.7
ATIS:134.85
FLT FOLLOWING:123.7
GND:121.8
RANGE CON:40.95
MEDEVAC OPS:42.5
POE OPS:36.05
PMSV METRO:135
TWR:41.5

KPOE Zoom In..

Runways:

(A) RW 16 length 4109 ft width 125 ft
---- / hdg 158

(B) RW 34 length 4109 ft width 125 ft
---- / hdg 338

Location; KPOE
Day. 23 / Time. 20.58 Zulu
* Altimeter: 30.19
* Temperature: 15° c. 59°f.
* Wind from: 290° Speed 07 kn.
Dewpoint: -05° c.
Visibility: 7 Statute Miles.
Clouds: Clear (automated report).

KPOE 232058Z AUTO 29007KT 7SM CLR 15/M05 A3019 RMK AO2 SLP226 T01521047 57019


Wind From 290°
Speed 07 kn.

YouTube Music Video
 
jpsmedia.com for Web Design  worldairports.se 2018   terms of use